Portada
METAR-TAF:

METAR-TAF

Aeroports :

Ardabil, Iran

latitud: 38-19-35N, longitud: 048-25-28E, altitud: 1315 m

Observació

L'informe es va fer fa 31 minuts, a les 06:00 UTC
Vent 21 kt del Est/Nord-Est
Temperatura -2°C
Humitat 86%
Pressió 1028 hPa
Visibilitat: 3000 m
Cel ennuvolat a una alçada de 700 ft
Cel ennuvolat a una alçada de 2000 ft
Cel cobert a una alçada de 6000 ft
plugim gebradora, boirina, Parcialment cobert per la boira

METAR: OITL 080600Z 06021KT 3000 FZDZ BR PRFG BKN007 BKN020 OVC060 M02/M04 Q1028

Hora: 11:01 (06:31 UTC)


TAF: manca

Observacions i pronòstics meteorològics de més de 4000 aeroports (METAR i TAF).

Les estacions disponibles són els punts grocs i vermells al mapa.

Posi el ratolí al punt desitjat per veure el nom de l'estació.

Feu clic per veure les observacions i els pronòstics meteorològics.

Per canviar el mapa: feu clic els botons verds amb una creu de color negre per apropar; al botó verd amb un guió per allunyar la imatge; o en les fletxes verdes per a mapes adjacents.


METAR-TAF: